Time;durP1;ratioP1;P1;durP2;ratioP2;P2;SDS_P1;SDS_P2;PMS_P1;PMS_P2;Temp;Humidity;BMP_temperature;BMP_pressure;BME280_temperature;BME280_humidity;BME280_pressure;Samples;Min_cycle;Max_cycle;Signal;HPM_P1;HPM_P2
2022/02/24 00:02:21;;;;;;;13.63;4.32;;;7.70;99.90;;;;;;5075826;28;20036;-75
2022/02/24 00:04:47;;;;;;;12.15;3.08;;;7.70;99.90;;;;;;5094060;28;20040;-74
2022/02/24 00:07:13;;;;;;;11.93;3.58;;;7.80;99.90;;;;;;5093952;28;20043;-75
2022/02/24 00:09:39;;;;;;;10.82;3.85;;;7.70;99.90;;;;;;5093715;28;20404;-74
2022/02/24 00:12:06;;;;;;;15.25;3.33;;;7.80;99.90;;;;;;5093448;28;20029;-75
2022/02/24 00:14:32;;;;;;;10.98;3.60;;;7.80;99.90;;;;;;5093608;28;20051;-74
2022/02/24 00:16:58;;;;;;;13.60;3.67;;;7.70;99.90;;;;;;5093885;28;20111;-74
2022/02/24 00:19:23;;;;;;;10.85;3.13;;;7.80;99.90;;;;;;5093769;28;20509;-74
2022/02/24 00:21:49;;;;;;;10.02;3.28;;;7.70;99.90;;;;;;5093288;28;20039;-74
2022/02/24 00:24:15;;;;;;;14.60;3.10;;;7.70;99.90;;;;;;5075310;28;20628;-74
2022/02/24 00:26:41;;;;;;;13.88;3.42;;;7.70;99.90;;;;;;5075453;28;20513;-74
2022/02/24 00:29:07;;;;;;;7.75;2.47;;;7.70;99.90;;;;;;5093333;28;20054;-74
2022/02/24 00:31:32;;;;;;;10.18;3.28;;;7.70;99.90;;;;;;5074715;28;20561;-74
2022/02/24 00:34:02;;;;;;;13.25;2.78;;;7.70;99.90;;;;;;5058525;28;20083;-74
2022/02/24 00:36:28;;;;;;;10.57;2.97;;;7.70;99.90;;;;;;5093403;28;20032;-74
2022/02/24 00:38:53;;;;;;;13.85;2.90;;;7.70;99.90;;;;;;5093280;28;20031;-74
2022/02/24 00:41:19;;;;;;;8.40;2.92;;;7.70;99.90;;;;;;5093347;28;20119;-75
2022/02/24 00:43:45;;;;;;;11.60;2.90;;;7.70;99.90;;;;;;5093080;28;20096;-74
2022/02/24 00:46:11;;;;;;;10.35;3.25;;;7.70;99.90;;;;;;5093309;28;20036;-74
2022/02/24 00:48:36;;;;;;;13.95;3.08;;;7.70;99.90;;;;;;5092152;28;20055;-74
2022/02/24 00:51:02;;;;;;;10.63;2.80;;;7.70;99.90;;;;;;5074446;28;20050;-74
2022/02/24 00:53:28;;;;;;;9.45;2.95;;;7.70;99.90;;;;;;5093021;28;20032;-74
2022/02/24 00:55:54;;;;;;;13.77;3.45;;;7.70;99.90;;;;;;5092930;28;20520;-75
2022/02/24 00:58:21;;;;;;;15.75;2.80;;;7.70;99.90;;;;;;5092785;28;20134;-74
2022/02/24 01:00:47;;;;;;;11.80;3.00;;;7.80;99.90;;;;;;5092822;28;20047;-75
2022/02/24 01:03:13;;;;;;;13.18;3.20;;;7.70;99.90;;;;;;5074490;28;20401;-74
2022/02/24 01:05:38;;;;;;;12.45;3.58;;;7.70;99.90;;;;;;5092816;28;20040;-74
2022/02/24 01:08:04;;;;;;;12.50;3.05;;;7.60;99.90;;;;;;5092713;28;20035;-75
2022/02/24 01:10:29;;;;;;;7.78;2.33;;;7.70;99.90;;;;;;5074286;28;20048;-74
2022/02/24 01:12:55;;;;;;;12.65;3.40;;;7.70;99.90;;;;;;5074229;28;20032;-74
2022/02/24 01:15:20;;;;;;;11.65;2.30;;;7.60;99.90;;;;;;5092731;28;20047;-74
2022/02/24 01:17:46;;;;;;;13.45;3.03;;;7.60;99.90;;;;;;5074379;28;20498;-75
2022/02/24 01:20:12;;;;;;;14.68;3.00;;;7.70;99.90;;;;;;5092461;28;20028;-74
2022/02/24 01:22:37;;;;;;;14.50;2.85;;;7.70;99.90;;;;;;5092154;28;20075;-74
2022/02/24 01:25:04;;;;;;;12.57;3.08;;;7.70;99.90;;;;;;5092404;28;20062;-74
2022/02/24 01:27:30;;;;;;;13.27;3.42;;;7.60;99.90;;;;;;5092339;28;20047;-74
2022/02/24 01:29:57;;;;;;;10.18;2.90;;;7.60;99.90;;;;;;5092268;28;20040;-74
2022/02/24 01:32:24;;;;;;;9.70;2.67;;;7.60;99.90;;;;;;5073835;28;20490;-74
2022/02/24 01:34:49;;;;;;;12.82;3.70;;;7.70;99.90;;;;;;5092339;28;20055;-74
2022/02/24 01:37:15;;;;;;;13.82;2.90;;;7.60;99.90;;;;;;5092156;28;20036;-73
2022/02/24 01:39:40;;;;;;;6.13;2.30;;;7.60;99.90;;;;;;5092091;28;20033;-72
2022/02/24 01:42:06;;;;;;;9.48;2.53;;;7.60;99.90;;;;;;5073712;28;20047;-72
2022/02/24 01:44:42;;;;;;;8.48;2.22;;;7.70;99.90;;;;;;5092305;28;20116;-72
2022/02/24 01:47:08;;;;;;;12.60;3.20;;;7.60;99.90;;;;;;5074278;28;20040;-72
2022/02/24 01:49:34;;;;;;;10.35;3.42;;;7.60;99.90;;;;;;5092149;28;20067;-72
2022/02/24 01:52:02;;;;;;;10.07;2.70;;;7.60;99.90;;;;;;5073744;28;20498;-72
2022/02/24 01:54:28;;;;;;;11.00;3.15;;;7.60;99.90;;;;;;5074058;28;20048;-72
2022/02/24 01:56:55;;;;;;;14.93;4.05;;;7.60;99.90;;;;;;5092101;28;20036;-72
2022/02/24 01:59:21;;;;;;;10.35;3.00;;;7.60;99.90;;;;;;5091611;28;20550;-73
2022/02/24 02:01:47;;;;;;;7.30;2.42;;;7.60;99.90;;;;;;5091652;28;20036;-72
2022/02/24 02:04:12;;;;;;;13.38;3.13;;;7.60;99.90;;;;;;5091901;28;20040;-72
2022/02/24 02:06:39;;;;;;;9.15;2.50;;;7.60;99.90;;;;;;5091832;28;20091;-72
2022/02/24 02:09:04;;;;;;;8.82;2.85;;;7.60;99.90;;;;;;5073641;28;20043;-72
2022/02/24 02:11:30;;;;;;;7.57;2.25;;;7.50;99.90;;;;;;5091306;28;20085;-72
2022/02/24 02:13:56;;;;;;;8.10;2.90;;;7.60;99.90;;;;;;5073635;28;20040;-72
2022/02/24 02:16:21;;;;;;;8.75;2.47;;;7.60;99.90;;;;;;5091820;28;20077;-72
2022/02/24 02:18:47;;;;;;;10.73;2.75;;;7.60;99.90;;;;;;5091784;28;20393;-72
2022/02/24 02:21:12;;;;;;;7.40;2.50;;;7.60;99.90;;;;;;5091315;28;20036;-72
2022/02/24 02:23:38;;;;;;;11.73;2.85;;;7.60;99.90;;;;;;5073605;28;20405;-74
2022/02/24 02:26:04;;;;;;;7.50;2.80;;;7.60;99.90;;;;;;5091644;28;20040;-75
2022/02/24 02:28:29;;;;;;;8.25;2.30;;;7.60;99.90;;;;;;5091808;28;20115;-74
2022/02/24 02:30:55;;;;;;;7.43;3.30;;;7.50;99.90;;;;;;5091349;28;20493;-74
2022/02/24 02:33:20;;;;;;;7.43;2.85;;;7.50;99.90;;;;;;5091537;28;20073;-74
2022/02/24 02:35:46;;;;;;;11.55;2.45;;;7.60;99.90;;;;;;5091520;28;20051;-74
2022/02/24 02:38:12;;;;;;;8.73;3.00;;;7.50;99.90;;;;;;5091534;28;20040;-74
2022/02/24 02:40:38;;;;;;;11.02;2.30;;;7.50;99.90;;;;;;5091639;28;20040;-74
2022/02/24 02:43:05;;;;;;;11.60;2.05;;;7.50;99.90;;;;;;5073460;28;20050;-74
2022/02/24 02:45:31;;;;;;;12.23;3.05;;;7.50;99.90;;;;;;5091494;28;20036;-74
2022/02/24 02:47:58;;;;;;;11.15;2.78;;;7.50;99.90;;;;;;5091392;28;20036;-75
2022/02/24 02:50:24;;;;;;;7.60;2.53;;;7.50;99.90;;;;;;5073480;28;20040;-74
2022/02/24 02:52:50;;;;;;;18.30;3.03;;;7.50;99.90;;;;;;5090972;28;20040;-74
2022/02/24 02:55:15;;;;;;;7.45;2.50;;;7.50;99.90;;;;;;5091542;28;20037;-72
2022/02/24 02:57:41;;;;;;;11.07;2.72;;;7.50;99.90;;;;;;5091509;28;20068;-72
2022/02/24 03:00:11;;;;;;;7.63;2.33;;;7.50;99.90;;;;;;5091423;28;20058;-73
2022/02/24 03:02:37;;;;;;;11.65;3.00;;;7.50;99.90;;;;;;5091127;28;20040;-73
2022/02/24 03:05:03;;;;;;;6.47;2.15;;;7.50;99.90;;;;;;5091267;28;20047;-72
2022/02/24 03:07:29;;;;;;;10.25;2.47;;;7.40;99.90;;;;;;5091407;28;20043;-73
2022/02/24 03:09:55;;;;;;;10.75;3.05;;;7.40;99.90;;;;;;5091215;28;20044;-72
2022/02/24 03:12:20;;;;;;;13.13;2.40;;;7.40;99.90;;;;;;5092935;28;20032;-72
2022/02/24 03:14:46;;;;;;;14.63;2.70;;;7.40;99.90;;;;;;5094988;28;20036;-72
2022/02/24 03:17:12;;;;;;;9.57;2.50;;;7.40;99.90;;;;;;5076627;28;20122;-72
2022/02/24 03:19:38;;;;;;;8.68;2.35;;;7.50;99.90;;;;;;5094620;28;20036;-72
2022/02/24 03:22:08;;;;;;;13.00;2.90;;;7.40;99.90;;;;;;5094375;28;20505;-72
2022/02/24 03:24:34;;;;;;;16.25;3.60;;;7.30;99.90;;;;;;5076544;28;20127;-72
2022/02/24 03:27:00;;;;;;;9.95;3.53;;;7.30;99.90;;;;;;5076758;28;20122;-72
2022/02/24 03:29:25;;;;;;;11.20;3.10;;;7.30;99.90;;;;;;5094061;28;20559;-73
2022/02/24 03:31:51;;;;;;;10.45;2.78;;;7.20;99.90;;;;;;5139175;22;20050;-73
2022/02/24 03:34:16;;;;;;;11.73;2.67;;;7.10;99.90;;;;;;5134058;27;20043;-73
2022/02/24 03:36:42;;;;;;;10.85;3.58;;;7.10;99.90;;;;;;5134123;27;20412;-73
2022/02/24 03:39:08;;;;;;;10.93;3.20;;;7.00;99.90;;;;;;5133089;27;20039;-74
2022/02/24 03:41:34;;;;;;;9.15;2.80;;;7.00;99.90;;;;;;5133352;27;20043;-73
2022/02/24 03:43:59;;;;;;;8.43;2.15;;;6.90;99.90;;;;;;5134325;27;20448;-73
2022/02/24 03:46:25;;;;;;;11.70;3.05;;;6.90;99.90;;;;;;5133982;27;20091;-73
2022/02/24 03:48:51;;;;;;;14.38;2.65;;;6.90;99.90;;;;;;5116761;27;20039;-73
2022/02/24 03:51:17;;;;;;;11.63;2.40;;;6.90;99.90;;;;;;5133340;27;20129;-73
2022/02/24 03:53:43;;;;;;;14.55;2.63;;;7.00;99.90;;;;;;5133708;27;20035;-73
2022/02/24 03:56:09;;;;;;;13.52;3.08;;;7.00;99.90;;;;;;5134080;27;20134;-73
2022/02/24 03:58:34;;;;;;;8.60;2.40;;;7.00;99.90;;;;;;5135020;27;20081;-73
2022/02/24 04:01:00;;;;;;;10.57;2.72;;;7.00;99.90;;;;;;5134707;27;20122;-73
2022/02/24 04:03:25;;;;;;;11.57;2.67;;;7.10;99.90;;;;;;5134944;27;20046;-73
2022/02/24 04:05:51;;;;;;;9.48;2.88;;;7.00;99.90;;;;;;5133623;27;20061;-74
2022/02/24 04:08:18;;;;;;;10.27;2.50;;;7.10;99.90;;;;;;5134787;27;20078;-73
2022/02/24 04:10:43;;;;;;;11.15;2.50;;;7.10;99.90;;;;;;5116281;27;20046;-73
2022/02/24 04:13:09;;;;;;;10.63;2.80;;;7.10;99.90;;;;;;5134550;27;20407;-73
2022/02/24 04:15:36;;;;;;;14.23;2.80;;;7.10;99.90;;;;;;5133457;27;20045;-73
2022/02/24 04:18:03;;;;;;;9.30;2.63;;;7.10;99.90;;;;;;5133340;27;20039;-73
2022/02/24 04:20:29;;;;;;;12.77;2.95;;;7.10;99.90;;;;;;5133189;27;20039;-73
2022/02/24 04:22:54;;;;;;;14.73;2.90;;;7.10;99.90;;;;;;5133252;27;20050;-73
2022/02/24 04:25:20;;;;;;;9.90;2.50;;;7.10;99.90;;;;;;5133520;27;20648;-73
2022/02/24 04:27:47;;;;;;;8.50;2.78;;;7.10;99.90;;;;;;5133108;27;20528;-73
2022/02/24 04:30:13;;;;;;;10.77;2.85;;;7.10;99.90;;;;;;5133327;27;20492;-73
2022/02/24 04:32:40;;;;;;;14.35;2.58;;;7.10;99.90;;;;;;5132499;27;20074;-73
2022/02/24 04:35:06;;;;;;;11.85;2.72;;;7.10;99.90;;;;;;5132906;27;20085;-73
2022/02/24 04:37:32;;;;;;;13.27;2.95;;;7.10;99.90;;;;;;5134435;27;20039;-73
2022/02/24 04:39:58;;;;;;;11.85;2.97;;;7.10;99.90;;;;;;5134362;27;20102;-73
2022/02/24 04:42:23;;;;;;;11.38;2.78;;;7.00;99.90;;;;;;5132740;27;20087;-73
2022/02/24 04:44:49;;;;;;;9.95;2.47;;;7.00;99.90;;;;;;5134052;27;20091;-73
2022/02/24 04:47:15;;;;;;;11.10;2.45;;;7.10;99.90;;;;;;5133990;27;20039;-74
2022/02/24 04:49:40;;;;;;;11.38;2.53;;;7.10;99.90;;;;;;5132619;27;20042;-73
2022/02/24 04:52:06;;;;;;;12.73;2.50;;;7.10;99.90;;;;;;5132267;27;20043;-73
2022/02/24 04:54:32;;;;;;;7.35;2.20;;;7.10;99.90;;;;;;5133855;27;20043;-73
2022/02/24 04:56:58;;;;;;;11.55;2.70;;;7.00;99.90;;;;;;5129503;27;20031;-73
2022/02/24 04:59:24;;;;;;;7.47;2.35;;;7.00;99.90;;;;;;5125842;27;20035;-73
2022/02/24 05:01:49;;;;;;;11.05;2.53;;;7.10;99.90;;;;;;5132886;27;20114;-73
2022/02/24 05:04:16;;;;;;;8.73;2.30;;;7.10;99.90;;;;;;5132425;27;20071;-73
2022/02/24 05:06:42;;;;;;;5.35;2.20;;;7.10;99.90;;;;;;5123872;27;20084;-73
2022/02/24 05:09:08;;;;;;;17.05;4.05;;;7.20;99.90;;;;;;5133716;27;20132;-73
2022/02/24 05:11:34;;;;;;;10.68;2.40;;;7.10;99.90;;;;;;5133202;27;20039;-73
2022/02/24 05:13:59;;;;;;;12.52;3.40;;;7.10;99.90;;;;;;5132278;27;20035;-73
2022/02/24 05:16:25;;;;;;;9.77;2.42;;;7.10;99.90;;;;;;5133447;27;20035;-73
2022/02/24 05:18:51;;;;;;;11.07;2.88;;;7.20;99.90;;;;;;5132108;27;20031;-73
2022/02/24 05:21:17;;;;;;;11.88;2.78;;;7.10;99.90;;;;;;5131774;27;20203;-73
2022/02/24 05:23:43;;;;;;;10.77;2.90;;;7.10;99.90;;;;;;5133358;27;20039;-73
2022/02/24 05:26:09;;;;;;;8.25;2.67;;;7.10;99.90;;;;;;5133506;27;20111;-73
2022/02/24 05:28:34;;;;;;;12.73;3.05;;;7.10;99.90;;;;;;5133366;27;20039;-73
2022/02/24 05:31:00;;;;;;;15.15;2.65;;;7.10;99.90;;;;;;5132581;27;20033;-73
2022/02/24 05:33:27;;;;;;;9.32;2.42;;;7.10;99.90;;;;;;5123223;27;20408;-73
2022/02/24 05:35:53;;;;;;;10.20;2.40;;;7.10;99.90;;;;;;5131713;27;20050;-73
2022/02/24 05:38:18;;;;;;;9.35;2.85;;;7.10;99.90;;;;;;5132009;27;20031;-73
2022/02/24 05:40:44;;;;;;;10.55;2.90;;;7.10;99.90;;;;;;5131753;27;20035;-73
2022/02/24 05:43:10;;;;;;;9.73;2.53;;;7.10;99.90;;;;;;5131572;27;20047;-73
2022/02/24 05:45:35;;;;;;;15.80;3.05;;;7.10;99.90;;;;;;5131822;27;20063;-73
2022/02/24 05:48:01;;;;;;;10.38;2.97;;;7.10;99.90;;;;;;5132932;27;20043;-73
2022/02/24 05:50:26;;;;;;;10.15;3.38;;;7.10;99.90;;;;;;5133117;27;20043;-73
2022/02/24 05:52:52;;;;;;;9.88;3.47;;;7.10;99.90;;;;;;5132833;27;20038;-74
2022/02/24 05:55:18;;;;;;;12.10;3.28;;;7.00;99.90;;;;;;5131927;27;20054;-73
2022/02/24 05:57:45;;;;;;;10.55;3.28;;;7.00;99.90;;;;;;5133047;27;20092;-73
2022/02/24 06:00:11;;;;;;;16.13;4.13;;;7.10;99.90;;;;;;5131643;27;20121;-73
2022/02/24 06:02:38;;;;;;;8.63;3.65;;;7.00;99.90;;;;;;5132378;27;20043;-73
2022/02/24 06:05:04;;;;;;;14.93;4.68;;;7.00;99.90;;;;;;5133082;27;20087;-73
2022/02/24 06:07:30;;;;;;;11.48;2.70;;;7.00;99.90;;;;;;5131088;28;20035;-73
2022/02/24 06:09:55;;;;;;;9.32;3.70;;;7.10;99.90;;;;;;5124659;28;20031;-73
2022/02/24 06:12:21;;;;;;;15.55;4.03;;;7.10;99.90;;;;;;5132409;28;20561;-73
2022/02/24 06:14:46;;;;;;;11.95;2.80;;;7.10;99.90;;;;;;5131488;28;20188;-73
2022/02/24 06:17:12;;;;;;;14.07;3.50;;;7.10;99.90;;;;;;5132558;28;20043;-73
2022/02/24 06:19:39;;;;;;;9.60;3.17;;;7.10;99.90;;;;;;5132840;28;20031;-73
2022/02/24 06:22:05;;;;;;;12.48;2.95;;;7.10;99.90;;;;;;5131009;28;20050;-73
2022/02/24 06:24:31;;;;;;;8.07;2.70;;;7.20;99.90;;;;;;5132738;28;20454;-73
2022/02/24 06:26:56;;;;;;;14.05;3.53;;;7.30;99.90;;;;;;5132590;28;20061;-73
2022/02/24 06:29:22;;;;;;;10.88;4.40;;;7.20;99.90;;;;;;5131561;28;20043;-73
2022/02/24 06:31:47;;;;;;;12.98;2.90;;;7.20;99.90;;;;;;5130623;28;20039;-73
2022/02/24 06:34:13;;;;;;;12.20;3.35;;;7.20;99.90;;;;;;5132724;28;20035;-73
2022/02/24 06:36:38;;;;;;;8.98;3.38;;;7.20;99.90;;;;;;5132586;28;20450;-74
2022/02/24 06:39:04;;;;;;;7.30;2.70;;;7.30;99.90;;;;;;5131259;28;20082;-73
2022/02/24 06:41:30;;;;;;;11.60;3.25;;;7.20;99.90;;;;;;5130935;28;20427;-73
2022/02/24 06:43:56;;;;;;;11.38;3.55;;;7.30;99.90;;;;;;5132471;28;20080;-73
2022/02/24 06:46:22;;;;;;;8.10;3.25;;;7.30;99.90;;;;;;5131358;27;20039;-73
2022/02/24 06:48:48;;;;;;;19.48;4.05;;;7.30;99.90;;;;;;5134849;27;20103;-74
2022/02/24 06:51:14;;;;;;;10.15;2.90;;;7.30;99.90;;;;;;5135819;27;20038;-74
2022/02/24 06:53:39;;;;;;;12.43;3.05;;;7.20;99.90;;;;;;5134902;27;20046;-74
2022/02/24 06:56:05;;;;;;;11.55;2.80;;;7.30;99.90;;;;;;5136312;27;20115;-73
2022/02/24 06:58:31;;;;;;;12.82;4.45;;;7.30;99.90;;;;;;5136185;27;20035;-73
2022/02/24 07:00:58;;;;;;;9.18;3.28;;;7.30;99.90;;;;;;5135698;27;20083;-73
2022/02/24 07:03:24;;;;;;;10.98;2.85;;;7.30;99.90;;;;;;5135071;27;20035;-74
2022/02/24 07:05:49;;;;;;;10.88;3.42;;;7.30;99.90;;;;;;5134984;27;20092;-73
2022/02/24 07:08:15;;;;;;;13.88;3.58;;;7.30;99.90;;;;;;5134734;27;20036;-73
2022/02/24 07:10:41;;;;;;;10.45;2.75;;;7.40;99.90;;;;;;5134468;27;20053;-74
2022/02/24 07:13:06;;;;;;;12.23;3.58;;;7.30;99.90;;;;;;5134158;27;20034;-74
2022/02/24 07:15:32;;;;;;;10.95;3.95;;;7.30;99.90;;;;;;5134155;27;20461;-74
2022/02/24 07:17:58;;;;;;;14.38;3.05;;;7.40;99.90;;;;;;5135642;27;20035;-74
2022/02/24 07:20:24;;;;;;;12.18;5.03;;;7.40;99.90;;;;;;5134304;27;20035;-74
2022/02/24 07:22:49;;;;;;;12.95;3.42;;;7.30;99.90;;;;;;5134135;27;20039;-73
2022/02/24 07:25:15;;;;;;;14.82;3.80;;;7.40;99.90;;;;;;5134269;27;20046;-73
2022/02/24 07:27:41;;;;;;;13.07;4.32;;;7.40;99.90;;;;;;5134804;27;20070;-73
2022/02/24 07:30:08;;;;;;;10.60;3.00;;;7.30;99.90;;;;;;5134456;27;20509;-74
2022/02/24 07:32:34;;;;;;;9.88;2.97;;;7.30;99.90;;;;;;5135441;27;20043;-73
2022/02/24 07:35:00;;;;;;;12.88;4.20;;;7.40;99.90;;;;;;5136175;27;20085;-73
2022/02/24 07:37:26;;;;;;;11.07;3.78;;;7.40;99.90;;;;;;5136410;27;20039;-74
2022/02/24 07:39:52;;;;;;;12.82;3.30;;;7.40;99.90;;;;;;5135361;27;20522;-74
2022/02/24 07:42:18;;;;;;;15.20;3.70;;;7.40;99.90;;;;;;5134991;27;20523;-74
2022/02/24 07:44:44;;;;;;;13.35;3.00;;;7.50;99.90;;;;;;5135135;27;20070;-74
2022/02/24 07:47:10;;;;;;;12.48;3.00;;;7.50;99.90;;;;;;5135400;27;20118;-74
2022/02/24 07:49:36;;;;;;;12.13;3.78;;;7.60;99.90;;;;;;5134024;27;20118;-74
2022/02/24 07:52:02;;;;;;;7.85;3.85;;;7.60;99.90;;;;;;5133353;27;20065;-73
2022/02/24 07:54:27;;;;;;;11.82;3.55;;;7.60;99.90;;;;;;5135302;27;20090;-73
2022/02/24 07:56:53;;;;;;;14.75;4.30;;;7.60;99.90;;;;;;5134848;27;20508;-73
2022/02/24 07:59:20;;;;;;;15.43;3.85;;;7.70;99.90;;;;;;5134448;27;20504;-74
2022/02/24 08:01:46;;;;;;;10.80;3.75;;;7.70;99.90;;;;;;5133514;27;20039;-74
2022/02/24 08:04:12;;;;;;;14.10;4.57;;;7.70;99.90;;;;;;5122969;27;20047;-74
2022/02/24 08:06:38;;;;;;;10.13;3.70;;;7.70;99.90;;;;;;5113202;28;20035;-74
2022/02/24 08:09:07;;;;;;;15.75;3.75;;;7.80;99.90;;;;;;5114600;28;20139;-74
2022/02/24 08:11:34;;;;;;;8.30;4.47;;;7.90;99.90;;;;;;5112871;28;20131;-75
2022/02/24 08:14:00;;;;;;;11.45;3.92;;;7.90;99.90;;;;;;5114208;28;20054;-74
2022/02/24 08:16:26;;;;;;;11.48;3.97;;;8.00;99.90;;;;;;5114302;28;20040;-73
2022/02/24 08:18:51;;;;;;;11.77;3.67;;;8.10;99.90;;;;;;5114907;28;20122;-77
2022/02/24 08:21:17;;;;;;;12.88;3.80;;;8.10;99.90;;;;;;5113986;28;20043;-75
2022/02/24 08:23:43;;;;;;;13.57;5.22;;;8.20;99.90;;;;;;5112896;28;20557;-73
2022/02/24 08:26:09;;;;;;;12.32;4.00;;;8.30;99.90;;;;;;5114039;28;20382;-74
2022/02/24 08:28:35;;;;;;;16.02;3.33;;;8.40;99.90;;;;;;5113958;28;20043;-74
2022/02/24 08:31:00;;;;;;;13.57;4.40;;;8.40;99.90;;;;;;5113595;28;20039;-73
2022/02/24 08:33:26;;;;;;;16.35;4.55;;;8.50;99.90;;;;;;5113715;28;20043;-74
2022/02/24 08:35:52;;;;;;;13.80;3.70;;;8.70;99.90;;;;;;5113882;28;20122;-75
2022/02/24 08:38:18;;;;;;;13.73;3.95;;;9.00;99.90;;;;;;5112455;28;20489;-75
2022/02/24 08:40:44;;;;;;;11.07;3.78;;;9.00;99.90;;;;;;5112354;28;20047;-75
2022/02/24 08:43:09;;;;;;;12.77;4.07;;;8.90;99.90;;;;;;5112174;28;20043;-75
2022/02/24 08:45:36;;;;;;;12.07;4.30;;;8.80;99.90;;;;;;5113897;28;20050;-74
2022/02/24 08:48:02;;;;;;;9.38;3.72;;;8.70;99.90;;;;;;5112510;28;20509;-73
2022/02/24 08:50:28;;;;;;;13.70;3.60;;;8.60;99.90;;;;;;5112710;28;20047;-72
2022/02/24 08:52:55;;;;;;;10.73;4.10;;;8.60;99.90;;;;;;5113184;28;20042;-72
2022/02/24 08:55:20;;;;;;;16.00;4.18;;;8.50;99.90;;;;;;5113227;28;20042;-71
2022/02/24 08:57:46;;;;;;;16.58;4.57;;;8.50;99.90;;;;;;5113287;28;20114;-72
2022/02/24 09:00:12;;;;;;;22.65;3.85;;;8.50;99.90;;;;;;5113391;28;20043;-72
2022/02/24 09:02:38;;;;;;;10.13;3.75;;;8.50;99.90;;;;;;5111481;28;20413;-72
2022/02/24 09:05:04;;;;;;;8.93;3.22;;;8.50;99.90;;;;;;5112844;28;20028;-72
2022/02/24 09:07:29;;;;;;;9.25;3.92;;;8.60;99.90;;;;;;5125716;27;20544;-72
2022/02/24 09:09:55;;;;;;;15.68;4.75;;;8.50;99.90;;;;;;5132655;27;20039;-72
2022/02/24 09:12:20;;;;;;;16.05;4.28;;;8.50;99.90;;;;;;5131669;27;20039;-73
2022/02/24 09:14:46;;;;;;;13.10;3.80;;;8.50;99.90;;;;;;5132300;27;20520;-72
2022/02/24 09:17:11;;;;;;;12.32;4.28;;;8.60;99.90;;;;;;5133296;27;20039;-73
2022/02/24 09:19:39;;;;;;;12.02;3.92;;;8.60;99.90;;;;;;5133330;27;20035;-72
2022/02/24 09:22:06;;;;;;;13.88;4.30;;;8.70;99.90;;;;;;5114512;27;20035;-72
2022/02/24 09:24:33;;;;;;;13.25;3.78;;;8.70;99.90;;;;;;5132013;27;20050;-72
2022/02/24 09:26:58;;;;;;;7.88;3.60;;;8.80;99.90;;;;;;5133280;27;20038;-72
2022/02/24 09:29:24;;;;;;;15.00;4.07;;;8.80;99.90;;;;;;5133103;27;20114;-72
2022/02/24 09:31:50;;;;;;;10.13;3.85;;;8.90;99.90;;;;;;5126100;22;20041;-72
2022/02/24 09:34:16;;;;;;;14.40;4.47;;;8.90;99.90;;;;;;5071536;28;20464;-72
2022/02/24 09:36:42;;;;;;;12.13;3.83;;;9.00;99.90;;;;;;5070607;28;20040;-72
2022/02/24 09:39:08;;;;;;;11.70;4.15;;;9.00;99.90;;;;;;5070772;28;20154;-72
2022/02/24 09:41:34;;;;;;;11.13;4.35;;;9.10;99.90;;;;;;5069188;28;20070;-72
2022/02/24 09:44:00;;;;;;;14.25;3.75;;;9.20;99.90;;;;;;5071684;28;20060;-72
2022/02/24 09:46:27;;;;;;;11.52;3.45;;;9.40;99.90;;;;;;5071607;28;20075;-73
2022/02/24 09:48:55;;;;;;;13.07;4.57;;;9.50;99.90;;;;;;5070686;28;20548;-73
2022/02/24 09:51:21;;;;;;;13.18;4.40;;;9.60;99.90;;;;;;5071419;28;20037;-72
2022/02/24 09:53:48;;;;;;;13.15;3.90;;;9.70;99.90;;;;;;5071541;28;20037;-73
2022/02/24 09:56:23;;;;;;;11.07;4.30;;;9.80;99.90;;;;;;5071857;28;20039;-73
2022/02/24 09:58:50;;;;;;;9.18;4.25;;;9.70;99.90;;;;;;5071814;28;20107;-73
2022/02/24 10:01:17;;;;;;;8.45;3.92;;;9.60;99.90;;;;;;5070718;28;20498;-73
2022/02/24 10:03:52;;;;;;;10.00;3.83;;;9.50;99.90;;;;;;5051779;28;20032;-74
2022/02/24 10:06:18;;;;;;;11.90;4.20;;;9.50;99.90;;;;;;5071373;28;20069;-71
2022/02/24 10:08:45;;;;;;;10.63;3.60;;;9.40;99.90;;;;;;5071532;28;20124;-71
2022/02/24 10:11:20;;;;;;;13.80;3.30;;;9.40;99.90;;;;;;5070911;28;20032;-72
2022/02/24 10:14:09;;;;;;;13.13;3.55;;;9.50;99.90;;;;;;5071387;28;20040;-71
2022/02/24 10:16:59;;;;;;;12.73;3.33;;;9.70;99.90;;;;;;5071088;28;20041;-72
2022/02/24 10:19:43;;;;;;;8.63;3.38;;;9.70;99.90;;;;;;5053310;28;20036;-72
2022/02/24 10:22:26;;;;;;;10.43;3.30;;;9.80;99.90;;;;;;5060236;28;20048;-73
2022/02/24 10:25:06;;;;;;;13.15;3.38;;;9.80;99.90;;;;;;5075494;28;20045;-72
2022/02/24 10:27:34;;;;;;;8.93;3.47;;;9.80;99.90;;;;;;5075244;28;20579;-70
2022/02/24 10:30:07;;;;;;;7.80;3.05;;;9.70;99.90;;;;;;5074139;28;20609;-72
2022/02/24 10:32:44;;;;;;;10.15;3.30;;;9.70;99.90;;;;;;5072860;28;20461;-73
2022/02/24 10:35:30;;;;;;;10.30;3.30;;;9.70;99.90;;;;;;5072452;28;20040;-73
2022/02/24 10:38:06;;;;;;;9.70;3.70;;;9.60;99.90;;;;;;5074795;28;20367;-73
2022/02/24 10:40:53;;;;;;;13.18;2.88;;;9.50;99.90;;;;;;5074154;28;20033;-73
2022/02/24 10:43:27;;;;;;;9.07;3.30;;;9.60;99.90;;;;;;5075075;28;20045;-75
2022/02/24 10:46:02;;;;;;;8.98;3.50;;;9.70;99.90;;;;;;5073734;28;20409;-73
2022/02/24 10:48:29;;;;;;;8.23;2.85;;;9.70;99.90;;;;;;5073037;28;20044;-73
2022/02/24 10:51:01;;;;;;;9.30;3.00;;;9.70;99.90;;;;;;5057870;28;20453;-73
2022/02/24 10:53:32;;;;;;;12.50;3.47;;;9.70;99.90;;;;;;5056798;28;20340;-73
2022/02/24 10:56:02;;;;;;;11.52;3.92;;;9.70;99.90;;;;;;5068355;28;20401;-73
2022/02/24 10:58:30;;;;;;;11.38;4.03;;;9.80;99.90;;;;;;5072932;28;20474;-73
2022/02/24 11:01:03;;;;;;;8.23;2.80;;;9.80;99.90;;;;;;5074537;28;20398;-73
2022/02/24 11:03:29;;;;;;;9.20;2.97;;;9.90;99.90;;;;;;5074403;28;20577;-73
2022/02/24 11:05:56;;;;;;;10.75;3.22;;;9.90;99.90;;;;;;5073710;28;20049;-73
2022/02/24 11:08:22;;;;;;;7.95;3.33;;;10.00;99.90;;;;;;5073916;28;20040;-73
2022/02/24 11:10:50;;;;;;;12.77;3.55;;;10.20;99.90;;;;;;5074036;28;20036;-74
2022/02/24 11:13:16;;;;;;;10.10;2.80;;;10.20;99.90;;;;;;5074402;28;20032;-72
2022/02/24 11:15:41;;;;;;;7.32;2.83;;;10.20;99.90;;;;;;5072828;28;20089;-73
2022/02/24 11:18:07;;;;;;;7.03;2.97;;;10.30;99.90;;;;;;5074222;28;20170;-73
2022/02/24 11:20:34;;;;;;;5.10;3.03;;;10.30;99.90;;;;;;5074249;28;20037;-73
2022/02/24 11:23:00;;;;;;;10.00;2.95;;;10.30;99.90;;;;;;5073497;28;20040;-74
2022/02/24 11:25:30;;;;;;;7.32;3.03;;;10.30;99.90;;;;;;5073790;28;20171;-73
2022/02/24 11:28:00;;;;;;;10.13;2.70;;;10.30;99.90;;;;;;5074351;28;20408;-73
2022/02/24 11:30:32;;;;;;;8.93;3.47;;;10.30;99.90;;;;;;5072892;28;20090;-73
2022/02/24 11:32:57;;;;;;;9.20;3.25;;;10.20;99.90;;;;;;5072835;28;20040;-73
2022/02/24 11:35:24;;;;;;;6.03;2.60;;;10.20;99.90;;;;;;5074157;28;20115;-73
2022/02/24 11:38:10;;;;;;;5.13;2.17;;;10.20;99.90;;;;;;5073989;28;20028;-73
2022/02/24 11:40:37;;;;;;;9.50;3.72;;;10.20;99.90;;;;;;5072638;28;20041;-73
2022/02/24 11:43:05;;;;;;;8.80;3.00;;;10.20;99.90;;;;;;5072778;28;20037;-72
2022/02/24 11:45:46;;;;;;;7.97;3.13;;;10.20;99.90;;;;;;5074156;28;20051;-73
2022/02/24 11:48:12;;;;;;;6.85;2.50;;;10.30;99.90;;;;;;5074129;28;20047;-73
2022/02/24 11:50:45;;;;;;;9.70;2.78;;;10.30;99.90;;;;;;5073824;28;20041;-73
2022/02/24 11:53:26;;;;;;;8.93;2.17;;;10.30;99.90;;;;;;5073970;28;20036;-72
2022/02/24 11:55:57;;;;;;;8.27;2.67;;;10.30;99.90;;;;;;5073775;28;20386;-73
2022/02/24 11:58:39;;;;;;;12.38;3.17;;;10.30;99.90;;;;;;5074293;28;20040;-73
2022/02/24 12:01:23;;;;;;;9.65;2.47;;;10.40;99.90;;;;;;5055390;28;20523;-72
2022/02/24 12:04:03;;;;;;;9.07;2.72;;;10.40;99.90;;;;;;5074071;28;20040;-73
2022/02/24 12:06:47;;;;;;;12.18;3.42;;;10.40;99.90;;;;;;5073520;28;20067;-73
2022/02/24 12:09:18;;;;;;;7.93;2.60;;;10.50;99.90;;;;;;5073905;28;20037;-73
2022/02/24 12:12:10;;;;;;;6.90;2.50;;;10.50;99.90;;;;;;5073873;28;20422;-71
2022/02/24 12:14:36;;;;;;;6.35;2.50;;;10.60;99.90;;;;;;5073795;28;20044;-71
2022/02/24 12:17:05;;;;;;;6.55;2.17;;;10.70;99.90;;;;;;5073689;28;20045;-71
2022/02/24 12:19:41;;;;;;;10.45;2.53;;;10.80;99.90;;;;;;5073511;28;20108;-72
2022/02/24 12:22:10;;;;;;;5.43;1.75;;;10.80;99.90;;;;;;5073186;28;20049;-72
2022/02/24 12:24:36;;;;;;;8.80;2.63;;;10.80;99.90;;;;;;5073534;28;20048;-71
2022/02/24 12:27:41;;;;;;;7.20;2.15;;;10.70;99.90;;;;;;5073536;28;20041;-72
2022/02/24 12:30:10;;;;;;;6.75;1.98;;;10.60;99.90;;;;;;5073177;28;20409;-72
2022/02/24 12:32:48;;;;;;;7.60;2.55;;;10.50;99.90;;;;;;5072595;28;20064;-71
2022/02/24 12:35:23;;;;;;;8.40;2.60;;;10.40;99.90;;;;;;5073142;28;20517;-72
2022/02/24 12:37:50;;;;;;;7.63;2.38;;;10.30;99.90;;;;;;5071190;28;20055;-72
2022/02/24 12:40:40;;;;;;;9.05;2.70;;;10.10;99.90;;;;;;5072589;28;20067;-72
2022/02/24 12:43:09;;;;;;;7.03;2.63;;;9.90;99.90;;;;;;5072669;28;20040;-72
2022/02/24 12:45:36;;;;;;;13.20;3.85;;;9.80;99.90;;;;;;5071818;28;20048;-72
2022/02/24 12:48:05;;;;;;;10.93;2.85;;;9.60;99.90;;;;;;5071287;28;20049;-71
2022/02/24 12:50:42;;;;;;;10.00;2.80;;;9.40;99.90;;;;;;5068635;28;20037;-72